createdAt,value
2024-02-29T00:04:17.039Z,3.26
2024-02-29T00:08:06.980Z,3.18
2024-02-29T00:11:47.445Z,3.10
2024-02-29T00:15:35.177Z,3.03
2024-02-29T00:19:26.640Z,3.01
2024-02-29T00:23:14.503Z,2.97
2024-02-29T00:31:20.496Z,2.87
2024-02-29T00:39:31.786Z,2.83
2024-02-29T00:47:43.175Z,2.87
2024-02-29T01:00:20.580Z,2.92
2024-02-29T01:08:25.658Z,2.90
2024-02-29T01:16:31.854Z,2.82
2024-02-29T01:24:32.529Z,2.73
2024-02-29T01:45:29.809Z,2.55
2024-02-29T01:49:03.123Z,2.54
2024-02-29T01:52:52.316Z,2.56
2024-02-29T02:00:26.109Z,2.51
2024-02-29T02:04:09.586Z,2.43
2024-02-29T02:07:50.858Z,2.41
2024-02-29T02:20:00.555Z,2.38
2024-02-29T02:28:12.861Z,2.34
2024-02-29T02:32:01.907Z,2.33
2024-02-29T02:35:53.824Z,2.31
2024-02-29T02:39:44.876Z,2.30
2024-02-29T02:43:32.721Z,2.29
2024-02-29T02:47:36.347Z,2.28
2024-02-29T02:55:51.428Z,2.26
2024-02-29T02:59:36.341Z,2.26
2024-02-29T03:03:29.320Z,2.25
2024-02-29T03:07:21.181Z,2.23
2024-02-29T03:11:10.320Z,2.20
2024-02-29T03:15:03.122Z,2.16
2024-02-29T03:18:51.195Z,2.13
2024-02-29T03:22:39.119Z,2.10
2024-02-29T03:26:29.962Z,2.09
2024-02-29T03:30:11.962Z,2.05
2024-02-29T03:33:52.787Z,2.02
2024-02-29T03:37:32.949Z,2.02
2024-02-29T03:41:20.894Z,2.02
2024-02-29T03:52:54.282Z,2.03
2024-02-29T04:01:00.941Z,2.02
2024-02-29T04:04:52.780Z,1.99
2024-02-29T04:08:55.820Z,1.95
2024-02-29T04:12:44.727Z,1.94
2024-02-29T04:16:32.589Z,1.92
2024-02-29T04:20:24.204Z,1.92
2024-02-29T04:24:27.507Z,1.89
2024-02-29T04:28:24.549Z,1.87
2024-02-29T04:44:18.092Z,1.78
2024-02-29T04:48:06.474Z,1.76
2024-02-29T04:52:08.505Z,1.75
2024-02-29T05:03:56.611Z,1.73
2024-02-29T05:07:44.578Z,1.67
2024-02-29T05:11:39.876Z,1.63
2024-02-29T05:15:24.777Z,1.62
2024-02-29T05:19:11.758Z,1.58
2024-02-29T05:23:04.457Z,1.55
2024-02-29T05:26:53.310Z,1.55
2024-02-29T05:30:43.876Z,1.55
2024-02-29T05:34:29.350Z,1.57
2024-02-29T05:38:18.060Z,1.60
2024-02-29T05:46:23.473Z,1.64
2024-02-29T05:50:11.484Z,1.67
2024-02-29T05:53:35.921Z,1.69
2024-02-29T05:57:29.161Z,1.74
2024-02-29T06:01:20.813Z,1.77
2024-02-29T06:04:59.003Z,1.80
2024-02-29T06:08:50.117Z,1.83
2024-02-29T06:12:32.994Z,1.82
2024-02-29T06:19:56.274Z,1.85
2024-02-29T06:27:57.656Z,1.85
2024-02-29T06:31:50.898Z,1.88
2024-02-29T06:39:23.305Z,1.98
2024-02-29T06:43:08.695Z,2.02
2024-02-29T06:47:01.923Z,2.07
2024-02-29T06:50:53.693Z,2.12
2024-02-29T06:54:36.364Z,2.17
2024-02-29T06:58:29.381Z,2.22
2024-02-29T07:02:28.273Z,2.26
2024-02-29T07:10:07.993Z,2.27
2024-02-29T07:14:01.893Z,2.30
2024-02-29T07:17:42.255Z,2.31
2024-02-29T07:21:30.302Z,2.31
2024-02-29T07:25:22.511Z,2.32
2024-02-29T07:29:15.455Z,2.34
2024-02-29T07:37:19.458Z,2.39
2024-02-29T07:41:07.793Z,2.36
2024-02-29T07:49:03.912Z,2.37
2024-02-29T07:52:51.857Z,2.42
2024-02-29T07:56:44.465Z,2.51
2024-02-29T08:00:34.297Z,2.60
2024-02-29T08:04:27.055Z,2.68
2024-02-29T08:08:29.277Z,2.78
2024-02-29T08:12:23.072Z,2.81
2024-02-29T08:16:23.387Z,2.85
2024-02-29T08:20:12.018Z,2.92
2024-02-29T08:23:53.383Z,2.93
2024-02-29T08:27:59.958Z,2.98
2024-02-29T08:31:48.868Z,3.03
2024-02-29T08:39:49.305Z,3.08
2024-02-29T08:43:50.592Z,3.14
2024-02-29T08:47:42.211Z,3.22
2024-02-29T08:51:31.965Z,3.24
2024-02-29T08:55:22.099Z,3.31
2024-02-29T08:59:10.540Z,3.38
2024-02-29T09:03:16.641Z,3.43
2024-02-29T09:07:09.779Z,3.49
2024-02-29T09:11:05.648Z,3.61
2024-02-29T09:19:31.914Z,3.78
2024-02-29T09:23:24.658Z,3.82
2024-02-29T09:27:02.218Z,3.84
2024-02-29T09:30:55.235Z,3.87
2024-02-29T09:34:47.917Z,3.95
2024-02-29T09:38:55.973Z,4.01
2024-02-29T09:42:46.057Z,4.05
2024-02-29T09:46:48.385Z,4.10
2024-02-29T09:50:40.834Z,4.13
2024-02-29T09:54:33.762Z,4.10
2024-02-29T09:58:21.825Z,4.14
2024-02-29T10:06:42.614Z,4.13
2024-02-29T10:10:34.519Z,4.12
2024-02-29T10:19:04.344Z,4.17
2024-02-29T10:22:55.038Z,4.17
2024-02-29T10:26:49.244Z,4.16
2024-02-29T10:30:42.630Z,4.02
2024-02-29T10:34:36.172Z,3.90
2024-02-29T10:38:13.886Z,3.96
2024-02-29T10:54:54.671Z,4.08
2024-02-29T10:58:42.633Z,4.10
2024-02-29T11:02:30.586Z,4.08
2024-02-29T11:06:20.194Z,4.09
2024-02-29T11:10:08.190Z,3.99
2024-02-29T11:14:01.862Z,3.68
2024-02-29T11:17:42.283Z,3.49
2024-02-29T11:21:30.028Z,3.35
2024-02-29T11:25:17.615Z,3.40
2024-02-29T11:33:27.550Z,3.76
2024-02-29T11:37:33.906Z,3.79
2024-02-29T11:41:21.967Z,3.85
2024-02-29T11:45:13.451Z,3.85
2024-02-29T11:49:05.957Z,3.95
2024-02-29T11:57:04.830Z,4.07
2024-02-29T12:00:56.055Z,4.13
2024-02-29T12:04:43.981Z,4.14
2024-02-29T12:08:24.153Z,4.19
2024-02-29T12:11:55.543Z,4.27
2024-02-29T12:24:02.679Z,4.24
2024-02-29T12:27:50.760Z,4.19
2024-02-29T12:31:39.379Z,4.25
2024-02-29T12:35:44.750Z,4.31
2024-02-29T12:43:35.177Z,4.41
2024-02-29T12:47:29.922Z,4.43
2024-02-29T12:51:18.956Z,4.47
2024-02-29T12:55:09.882Z,4.58
2024-02-29T12:59:09.872Z,4.67
2024-02-29T13:03:11.485Z,4.73
2024-02-29T13:07:00.537Z,4.85
2024-02-29T13:10:49.347Z,5.03
2024-02-29T13:14:38.301Z,5.16
2024-02-29T13:18:28.630Z,5.21
2024-02-29T13:22:23.145Z,5.17
2024-02-29T13:30:16.657Z,5.10
2024-02-29T13:34:05.966Z,5.07
2024-02-29T13:37:59.280Z,5.02
2024-02-29T13:41:47.345Z,5.01
2024-02-29T13:45:36.065Z,4.98
2024-02-29T13:49:25.062Z,4.97
2024-02-29T13:53:11.537Z,4.74
2024-02-29T14:01:38.625Z,4.22
2024-02-29T14:05:29.846Z,4.13
2024-02-29T14:09:23.457Z,4.07
2024-02-29T14:13:14.108Z,4.03
2024-02-29T14:17:08.212Z,3.74
2024-02-29T14:24:50.461Z,3.45
2024-02-29T14:40:59.024Z,3.27
2024-02-29T14:44:57.092Z,3.23
2024-02-29T14:53:11.408Z,2.95
2024-02-29T14:57:00.072Z,2.89
2024-02-29T15:00:56.516Z,2.82
2024-02-29T15:09:01.410Z,2.83
2024-02-29T15:12:49.518Z,2.85
2024-02-29T15:16:41.397Z,2.78
2024-02-29T15:20:28.136Z,2.69
2024-02-29T15:24:28.147Z,2.65
2024-02-29T15:28:05.516Z,2.60
2024-02-29T15:36:17.486Z,2.54
2024-02-29T15:40:11.309Z,2.53
2024-02-29T15:44:00.096Z,2.49
2024-02-29T15:47:50.345Z,2.47
2024-02-29T15:51:38.634Z,2.49
2024-02-29T15:55:21.613Z,2.49
2024-02-29T15:59:13.531Z,2.49
2024-02-29T16:03:05.350Z,2.50
2024-02-29T16:06:57.897Z,2.53
2024-02-29T16:19:29.753Z,2.61
2024-02-29T16:22:53.328Z,2.62
2024-02-29T16:26:42.330Z,2.61
2024-02-29T16:34:40.473Z,2.64
2024-02-29T16:38:35.411Z,2.64
2024-02-29T16:42:26.390Z,2.63
2024-02-29T16:46:21.390Z,2.65
2024-02-29T16:50:14.988Z,2.67
2024-02-29T16:54:05.077Z,2.68
2024-02-29T16:57:54.353Z,2.70
2024-02-29T17:01:42.324Z,2.72
2024-02-29T17:05:13.977Z,2.73
2024-02-29T17:13:14.126Z,2.72
2024-02-29T17:17:05.797Z,2.72
2024-02-29T17:20:59.742Z,2.75
2024-02-29T17:28:57.796Z,2.78
2024-02-29T17:32:42.754Z,2.78
2024-02-29T17:40:33.360Z,2.78
2024-02-29T17:52:54.580Z,2.84
2024-02-29T17:56:44.575Z,2.85
2024-02-29T18:00:34.440Z,2.87
2024-02-29T18:04:03.379Z,2.87
2024-02-29T18:07:43.667Z,2.89
2024-02-29T18:11:43.705Z,2.89
2024-02-29T18:15:16.317Z,2.91
2024-02-29T18:19:07.284Z,2.92
2024-02-29T18:23:10.437Z,2.93
2024-02-29T18:26:57.645Z,2.94
2024-02-29T18:34:41.441Z,2.96
2024-02-29T18:38:41.335Z,2.96
2024-02-29T18:42:25.490Z,2.96
2024-02-29T18:46:08.428Z,2.97
2024-02-29T18:49:56.407Z,2.98
2024-02-29T18:53:46.634Z,2.99
2024-02-29T18:57:37.837Z,2.99
2024-02-29T19:05:55.081Z,3.01
2024-02-29T19:13:38.651Z,3.02
2024-02-29T19:17:26.773Z,3.02
2024-02-29T19:28:57.999Z,3.04
2024-02-29T19:33:04.919Z,3.04
2024-02-29T19:37:08.309Z,3.05
2024-02-29T19:41:11.117Z,3.06
2024-02-29T19:53:11.530Z,3.04
2024-02-29T19:57:06.268Z,3.03
2024-02-29T20:08:31.763Z,3.04
2024-02-29T20:12:20.637Z,3.01
2024-02-29T20:16:12.310Z,3.02
2024-02-29T20:20:15.723Z,3.01
2024-02-29T20:24:08.274Z,3.02
2024-02-29T20:28:00.753Z,3.03
2024-02-29T20:31:52.768Z,3.05
2024-02-29T20:35:40.661Z,3.06
2024-02-29T20:39:20.450Z,3.06
2024-02-29T20:47:45.683Z,3.08
2024-02-29T20:51:35.630Z,3.09
2024-02-29T20:55:16.252Z,3.10
2024-02-29T20:58:32.822Z,3.10
2024-02-29T21:02:04.831Z,3.09
2024-02-29T21:05:56.210Z,3.09
2024-02-29T21:10:01.902Z,3.08
2024-02-29T21:13:40.240Z,3.07
2024-02-29T21:21:40.248Z,3.08
2024-02-29T21:25:23.954Z,3.06
2024-02-29T21:33:27.200Z,3.03
2024-02-29T21:37:25.227Z,3.01
2024-02-29T21:41:13.837Z,3.02
2024-02-29T21:45:00.695Z,3.02
2024-02-29T21:48:28.335Z,3.04
2024-02-29T21:52:28.445Z,3.05
2024-02-29T21:56:16.472Z,3.08
2024-02-29T21:59:52.638Z,3.11
2024-02-29T22:03:40.976Z,3.15
2024-02-29T22:07:28.957Z,3.17
2024-02-29T22:11:20.502Z,3.20
2024-02-29T22:14:54.079Z,3.22
2024-02-29T22:18:25.586Z,3.23
2024-02-29T22:22:12.409Z,3.23
2024-02-29T22:25:50.871Z,3.22
2024-02-29T22:29:36.193Z,3.19
2024-02-29T22:33:20.357Z,3.16
2024-02-29T22:37:04.527Z,3.12
2024-02-29T22:40:52.695Z,3.08
2024-02-29T22:43:41.219Z,3.05
2024-02-29T22:47:29.158Z,3.01
2024-02-29T22:51:19.292Z,2.96
2024-02-29T22:55:07.320Z,2.91
2024-02-29T22:58:57.954Z,2.89
2024-02-29T23:06:53.673Z,2.83
2024-02-29T23:10:45.707Z,2.80
2024-02-29T23:18:51.667Z,2.75
2024-02-29T23:22:24.343Z,2.74
2024-02-29T23:26:02.434Z,2.74
2024-02-29T23:29:35.546Z,2.73
2024-02-29T23:33:26.622Z,2.74
2024-02-29T23:37:14.782Z,2.74
2024-02-29T23:44:51.531Z,2.70
2024-02-29T23:48:31.736Z,2.69
2024-02-29T23:52:22.711Z,2.68
2024-02-29T23:56:18.164Z,2.69
